Terminal Aerodrome Forecast
Issued by NWS

Home | Current Version | Previous Version | Text Only | Print | Product List | Glossary On
Versions: 1 2 3 4 5 6 7 8 9 10 11 12 13 14
000
FTUS41 KBTV 231131
TAFMSS
TAF
KMSS 231131Z 2312/2412 22009KT 6SM -SHRA BR SCT009 BKN040
      TEMPO 2312/2316 2SM SHRA BR OVC008
     FM231700 21008KT P6SM VCSH OVC025
     FM240100 24011KT P6SM VCSH OVC020
     FM240500 27008KT P6SM SCT008=

USA.gov is the U.S. government's official web portal to all federal, state and local government web resources and services.